createdAt,value
2019-04-27T00:00:57.187Z,8.99
2019-04-27T00:06:17.682Z,8.96
2019-04-27T00:11:45.457Z,8.95
2019-04-27T00:17:08.601Z,8.82
2019-04-27T00:22:28.773Z,8.81
2019-04-27T00:27:47.465Z,8.73
2019-04-27T00:33:06.135Z,8.57
2019-04-27T00:38:35.138Z,8.38
2019-04-27T00:43:53.781Z,8.18
2019-04-27T00:49:13.741Z,8.10
2019-04-27T00:54:34.013Z,8.05
2019-04-27T00:59:59.940Z,7.86
2019-04-27T01:05:23.160Z,7.66
2019-04-27T01:10:43.506Z,7.42
2019-04-27T01:16:02.318Z,7.25
2019-04-27T01:21:20.873Z,7.16
2019-04-27T01:27:00.062Z,7.12
2019-04-27T01:32:20.663Z,6.99
2019-04-27T01:37:39.267Z,7.14
2019-04-27T01:42:58.837Z,6.92
2019-04-27T01:48:23.675Z,6.93
2019-04-27T01:53:39.044Z,6.90
2019-04-27T01:59:01.467Z,6.81
2019-04-27T02:04:34.315Z,6.84
2019-04-27T02:09:52.796Z,7.27
2019-04-27T02:15:11.627Z,7.47
2019-04-27T02:20:30.249Z,7.39
2019-04-27T02:25:49.702Z,7.58
2019-04-27T02:31:13.092Z,7.57
2019-04-27T02:36:31.783Z,7.71
2019-04-27T02:41:51.941Z,8.01
2019-04-27T02:47:10.906Z,7.87
2019-04-27T02:52:34.000Z,7.72
2019-04-27T02:57:52.547Z,7.81
2019-04-27T03:03:12.823Z,7.53
2019-04-27T03:08:31.440Z,7.64
2019-04-27T03:14:15.094Z,7.49
2019-04-27T03:19:32.668Z,7.53
2019-04-27T03:25:00.003Z,7.59
2019-04-27T03:30:22.619Z,7.52
2019-04-27T03:35:43.120Z,7.44
2019-04-27T03:41:00.519Z,7.42
2019-04-27T03:46:20.490Z,7.36
2019-04-27T03:51:40.972Z,7.53
2019-04-27T03:57:02.412Z,7.60
2019-04-27T04:02:21.201Z,7.38
2019-04-27T04:07:40.502Z,7.42
2019-04-27T04:13:01.689Z,7.36
2019-04-27T04:23:41.929Z,7.53
2019-04-27T04:29:00.542Z,7.64
2019-04-27T04:34:19.942Z,7.70
2019-04-27T04:39:40.311Z,7.74
2019-04-27T04:45:06.875Z,7.87
2019-04-27T04:50:25.458Z,8.95
2019-04-27T04:55:44.068Z,10.90
2019-04-27T05:01:02.700Z,12.11
2019-04-27T05:06:21.310Z,12.95
2019-04-27T05:11:39.931Z,13.69
2019-04-27T05:16:59.306Z,13.00
2019-04-27T05:22:19.429Z,10.66
2019-04-27T05:27:38.971Z,10.66
2019-04-27T05:32:58.651Z,10.27
2019-04-27T05:38:19.130Z,10.16
2019-04-27T05:43:45.253Z,10.04
2019-04-27T05:49:06.267Z,10.14
2019-04-27T05:54:25.600Z,10.25
2019-04-27T05:59:44.160Z,10.49
2019-04-27T06:05:02.861Z,10.67
2019-04-27T06:10:21.454Z,10.78
2019-04-27T06:15:40.286Z,10.58
2019-04-27T06:20:59.859Z,10.42
2019-04-27T06:26:20.142Z,10.35
2019-04-27T06:31:39.652Z,10.25
2019-04-27T06:36:59.967Z,10.30
2019-04-27T06:42:20.673Z,10.16
2019-04-27T06:47:39.691Z,10.01
2019-04-27T06:52:59.192Z,9.83
2019-04-27T06:58:19.903Z,9.80
2019-04-27T07:03:39.550Z,9.89
2019-04-27T07:08:59.747Z,9.96
2019-04-27T07:14:19.667Z,9.89
2019-04-27T07:19:39.707Z,9.86
2019-04-27T07:24:59.137Z,9.78
2019-04-27T07:30:18.976Z,9.88
2019-04-27T07:35:39.288Z,9.96
2019-04-27T07:40:58.753Z,9.94
2019-04-27T07:46:18.514Z,9.92
2019-04-27T07:51:49.042Z,9.99
2019-04-27T07:57:09.721Z,10.00
2019-04-27T08:02:32.048Z,9.94
2019-04-27T08:07:50.642Z,9.78
2019-04-27T08:13:09.637Z,9.61
2019-04-27T08:18:29.917Z,9.90
2019-04-27T08:23:49.044Z,10.04
2019-04-27T08:29:25.727Z,10.37
2019-04-27T08:34:44.339Z,10.57
2019-04-27T08:40:03.246Z,10.54
2019-04-27T08:45:21.719Z,10.69
2019-04-27T08:50:42.062Z,11.03
2019-04-27T08:56:00.497Z,10.87
2019-04-27T09:01:20.796Z,10.90
2019-04-27T09:06:41.167Z,10.75
2019-04-27T09:12:06.842Z,10.33
2019-04-27T09:17:31.051Z,10.44
2019-04-27T09:22:49.799Z,10.76
2019-04-27T09:28:08.825Z,10.88
2019-04-27T09:33:27.495Z,10.67
2019-04-27T09:38:46.538Z,10.65
2019-04-27T09:44:05.881Z,10.57
2019-04-27T09:49:26.137Z,10.99
2019-04-27T09:54:45.153Z,10.83
2019-04-27T10:00:06.382Z,11.46
2019-04-27T10:05:26.290Z,12.09
2019-04-27T10:10:45.970Z,12.64
2019-04-27T10:16:05.879Z,11.97
2019-04-27T10:21:26.308Z,10.01
2019-04-27T10:26:44.766Z,8.60
2019-04-27T10:32:03.423Z,8.72
2019-04-27T10:37:35.349Z,8.64
2019-04-27T10:42:56.065Z,8.82
2019-04-27T10:48:16.391Z,8.91
2019-04-27T10:53:38.957Z,9.17
2019-04-27T10:58:57.828Z,9.53
2019-04-27T11:04:20.835Z,9.84
2019-04-27T11:09:42.216Z,9.94
2019-04-27T11:15:02.391Z,9.98
2019-04-27T11:20:21.138Z,9.80
2019-04-27T11:25:39.744Z,9.88
2019-04-27T11:30:58.416Z,10.17
2019-04-27T11:36:25.569Z,10.43
2019-04-27T11:41:44.313Z,10.41
2019-04-27T11:47:03.032Z,9.72
2019-04-27T11:52:21.572Z,9.29
2019-04-27T11:57:40.199Z,9.22
2019-04-27T12:02:59.831Z,9.21
2019-04-27T12:08:19.036Z,9.32
2019-04-27T12:13:38.149Z,9.32
2019-04-27T12:18:56.827Z,9.01
2019-04-27T12:24:16.140Z,9.15
2019-04-27T12:29:55.727Z,9.20
2019-04-27T12:35:14.464Z,9.72
2019-04-27T12:40:33.012Z,10.31
2019-04-27T12:45:51.564Z,10.52
2019-04-27T12:51:10.282Z,11.86
2019-04-27T12:56:36.264Z,12.39
2019-04-27T13:01:56.125Z,11.70
2019-04-27T13:07:15.985Z,11.52
2019-04-27T13:12:35.776Z,11.74
2019-04-27T13:17:55.574Z,11.65
2019-04-27T13:23:15.451Z,12.44
2019-04-27T13:28:35.795Z,12.21
2019-04-27T13:33:55.922Z,12.16
2019-04-27T13:39:15.807Z,12.54
2019-04-27T13:44:35.966Z,12.85
2019-04-27T13:50:06.476Z,13.30
2019-04-27T13:55:25.077Z,13.26
2019-04-27T14:00:43.644Z,13.23
2019-04-27T14:06:02.270Z,13.07
2019-04-27T14:11:21.273Z,14.08
2019-04-27T14:16:39.869Z,13.48
2019-04-27T14:21:59.121Z,13.66
2019-04-27T14:27:19.026Z,13.54
2019-04-27T14:32:38.749Z,13.49
2019-04-27T14:37:58.152Z,12.39
2019-04-27T14:43:16.761Z,11.96
2019-04-27T14:48:36.931Z,10.80
2019-04-27T14:53:55.481Z,10.39
2019-04-27T14:59:14.026Z,10.76
2019-04-27T15:04:33.643Z,12.10
2019-04-27T15:09:56.152Z,13.14
2019-04-27T15:15:12.934Z,13.12
2019-04-27T15:20:43.937Z,12.69
2019-04-27T15:26:02.416Z,12.56
2019-04-27T15:31:26.689Z,12.73
2019-04-27T15:36:47.606Z,12.09
2019-04-27T15:42:24.185Z,11.38
2019-04-27T15:47:49.272Z,9.10
2019-04-27T15:53:09.870Z,8.25
2019-04-27T15:58:25.262Z,8.54
2019-04-27T16:03:44.659Z,8.96
2019-04-27T16:09:07.669Z,9.27
2019-04-27T16:14:28.911Z,9.48
2019-04-27T16:19:50.305Z,10.02
2019-04-27T16:25:08.369Z,10.87
2019-04-27T16:30:28.766Z,10.88
2019-04-27T16:35:48.801Z,10.74
2019-04-27T16:41:08.208Z,10.83
2019-04-27T16:46:28.557Z,10.76
2019-04-27T16:51:49.225Z,10.53
2019-04-27T16:57:07.899Z,10.36
2019-04-27T17:02:28.148Z,10.23
2019-04-27T17:07:46.770Z,10.16
2019-04-27T17:13:10.626Z,10.16
2019-04-27T17:18:44.402Z,10.14
2019-04-27T17:24:03.983Z,10.30
2019-04-27T17:29:22.929Z,10.05
2019-04-27T17:34:41.644Z,9.91
2019-04-27T17:40:00.899Z,9.63
2019-04-27T17:45:21.667Z,9.51
2019-04-27T17:50:39.884Z,9.43
2019-04-27T17:56:02.911Z,9.21
2019-04-27T18:01:23.382Z,9.12
2019-04-27T18:06:42.514Z,9.04
2019-04-27T18:12:00.172Z,8.94
2019-04-27T18:17:19.882Z,7.91
2019-04-27T18:22:40.319Z,7.44
2019-04-27T18:28:03.192Z,7.24
2019-04-27T18:33:23.420Z,7.18
2019-04-27T18:38:42.064Z,7.24
2019-04-27T18:44:02.220Z,7.26
2019-04-27T18:49:30.270Z,7.22
2019-04-27T18:54:48.697Z,7.05
2019-04-27T19:00:10.906Z,7.12
2019-04-27T19:05:39.906Z,6.89
2019-04-27T19:10:51.635Z,6.89
2019-04-27T19:16:10.258Z,6.88
2019-04-27T19:21:29.278Z,6.81
2019-04-27T19:26:49.588Z,6.86
2019-04-27T19:32:10.309Z,6.89
2019-04-27T19:37:28.991Z,6.90
2019-04-27T19:42:54.220Z,6.95
2019-04-27T19:48:14.319Z,6.99
2019-04-27T19:53:32.867Z,7.03
2019-04-27T19:58:53.131Z,7.05
2019-04-27T20:04:16.078Z,6.99
2019-04-27T20:09:39.313Z,7.06
2019-04-27T20:14:58.022Z,7.03
2019-04-27T20:20:16.702Z,6.97
2019-04-27T20:25:35.859Z,6.92
2019-04-27T20:30:54.515Z,6.91
2019-04-27T20:36:13.064Z,6.93
2019-04-27T20:41:31.947Z,6.96
2019-04-27T20:46:51.346Z,6.97
2019-04-27T20:52:14.844Z,7.00
2019-04-27T20:57:33.384Z,7.06
2019-04-27T21:03:01.658Z,7.02
2019-04-27T21:08:21.790Z,7.03
2019-04-27T21:13:40.420Z,7.00
2019-04-27T21:18:59.098Z,7.05
2019-04-27T21:24:17.658Z,7.02
2019-04-27T21:29:36.127Z,7.02
2019-04-27T21:34:54.827Z,7.11
2019-04-27T21:40:15.284Z,7.09
2019-04-27T21:45:33.889Z,7.04
2019-04-27T21:50:52.503Z,6.96
2019-04-27T21:56:12.201Z,6.93
2019-04-27T22:01:32.272Z,6.92
2019-04-27T22:06:51.290Z,6.89
2019-04-27T22:12:11.229Z,7.05
2019-04-27T22:17:30.122Z,7.11
2019-04-27T22:22:51.626Z,7.09
2019-04-27T22:28:11.749Z,7.04
2019-04-27T22:33:30.743Z,7.05
2019-04-27T22:38:51.411Z,7.10
2019-04-27T22:44:26.365Z,7.18
2019-04-27T22:49:44.913Z,7.25
2019-04-27T22:55:03.703Z,7.26
2019-04-27T23:00:23.964Z,7.27
2019-04-27T23:05:43.028Z,7.24
2019-04-27T23:11:02.602Z,7.23
2019-04-27T23:16:22.891Z,7.20
2019-04-27T23:21:41.499Z,7.20
2019-04-27T23:27:03.394Z,7.14
2019-04-27T23:32:31.649Z,7.02
2019-04-27T23:37:50.771Z,6.94
2019-04-27T23:43:11.478Z,6.87
2019-04-27T23:48:32.214Z,6.91
2019-04-27T23:53:51.703Z,6.92
2019-04-27T23:59:10.175Z,6.93
